Time;durP1;ratioP1;P1;durP2;ratioP2;P2;SDS_P1;SDS_P2;PMS_P1;PMS_P2;Temp;Humidity;BMP_temperature;BMP_pressure;BME280_temperature;BME280_humidity;BME280_pressure;Samples;Min_cycle;Max_cycle;Signal;HPM_P1;HPM_P2
2022/12/15 00:40:57;;;;;;;0.75;0.75;;;;;;;;;;5055560;28;20261;-78
2022/12/15 00:43:24;;;;;;;0.73;0.73;;;;;;;;;;5043080;28;20284;-77
2022/12/15 00:48:37;;;;;;;0.70;0.70;;;;;;;;;;5047303;28;20213;-77
2022/12/15 00:51:05;;;;;;;0.70;0.60;;;;;;;;;;5054849;28;20207;-79
2022/12/15 01:21:19;;;;;;;0.90;0.90;;;;;;;;;;5045427;28;20193;-77
2022/12/15 01:23:52;;;;;;;0.85;0.85;;;;;;;;;;5053779;28;20193;-79
2022/12/15 01:26:18;;;;;;;0.95;0.95;;;;;;;;;;5054073;28;20206;-79
2022/12/15 01:28:45;;;;;;;0.70;0.70;;;;;;;;;;5039875;28;20191;-77
2022/12/15 01:31:12;;;;;;;0.68;0.65;;;;;;;;;;5038013;28;20547;-77
2022/12/15 01:33:41;;;;;;;0.70;0.70;;;;;;;;;;5028375;28;20214;-78
2022/12/15 01:36:08;;;;;;;0.80;0.80;;;;;;;;;;5050325;28;20642;-78
2022/12/15 01:38:35;;;;;;;0.82;0.82;;;;;;;;;;5054347;28;20757;-78
2022/12/15 01:41:04;;;;;;;0.82;0.82;;;;;;;;;;5052573;28;20554;-78
2022/12/15 01:43:33;;;;;;;0.88;0.88;;;;;;;;;;5051841;28;20221;-77
2022/12/15 01:46:03;;;;;;;0.60;0.50;;;;;;;;;;5040696;28;20210;-78
2022/12/15 01:48:37;;;;;;;3.10;1.80;;;;;;;;;;5037424;28;20217;-79
2022/12/15 01:51:24;;;;;;;0.90;0.90;;;;;;;;;;5053448;28;20192;-78
2022/12/15 01:53:53;;;;;;;0.75;0.75;;;;;;;;;;5052231;28;20216;-78
2022/12/15 01:56:22;;;;;;;0.85;0.85;;;;;;;;;;5054895;28;20190;-78
2022/12/15 01:58:51;;;;;;;0.60;0.52;;;;;;;;;;5049136;28;20212;-79
2022/12/15 02:01:17;;;;;;;0.60;0.50;;;;;;;;;;5050433;28;20204;-79
2022/12/15 02:03:45;;;;;;;0.80;0.80;;;;;;;;;;5054750;28;20209;-79
2022/12/15 02:06:12;;;;;;;1.00;1.00;;;;;;;;;;5052571;28;20210;-77
2022/12/15 02:08:41;;;;;;;0.80;0.80;;;;;;;;;;5037510;28;20198;-79
2022/12/15 02:11:26;;;;;;;0.70;0.70;;;;;;;;;;5050748;28;20668;-78
2022/12/15 02:14:00;;;;;;;1.02;1.02;;;;;;;;;;5032946;28;20666;-78
2022/12/15 02:16:35;;;;;;;0.70;0.70;;;;;;;;;;5036312;28;20642;-78
2022/12/15 02:19:17;;;;;;;0.88;0.88;;;;;;;;;;5053182;28;20216;-77
2022/12/15 02:21:59;;;;;;;0.80;0.80;;;;;;;;;;5036836;28;20213;-78
2022/12/15 02:24:51;;;;;;;1.08;1.08;;;;;;;;;;5050028;28;20198;-79
2022/12/15 02:27:34;;;;;;;0.80;0.80;;;;;;;;;;5032569;28;20167;-77
2022/12/15 02:30:20;;;;;;;0.77;0.77;;;;;;;;;;5039301;28;20188;-78
2022/12/15 02:33:03;;;;;;;0.80;0.80;;;;;;;;;;5035148;28;20228;-78
2022/12/15 02:35:36;;;;;;;0.60;0.60;;;;;;;;;;5038051;28;20175;-78
2022/12/15 02:38:11;;;;;;;0.88;0.88;;;;;;;;;;5033476;28;20213;-77
2022/12/15 02:40:44;;;;;;;0.70;0.70;;;;;;;;;;5053670;28;20647;-79
2022/12/15 02:43:15;;;;;;;0.90;0.90;;;;;;;;;;5036888;28;20251;-77
2022/12/15 02:45:51;;;;;;;1.30;1.30;;;;;;;;;;5051277;28;20264;-77
2022/12/15 02:48:27;;;;;;;0.88;0.88;;;;;;;;;;5048851;28;20209;-78
2022/12/15 02:51:11;;;;;;;1.33;1.23;;;;;;;;;;5036599;28;20556;-79
2022/12/15 02:53:57;;;;;;;0.90;0.90;;;;;;;;;;5045323;28;20216;-77
2022/12/15 02:56:33;;;;;;;0.80;0.80;;;;;;;;;;5036304;28;20710;-78
2022/12/15 02:59:03;;;;;;;0.70;0.70;;;;;;;;;;5038848;28;20248;-78
2022/12/15 03:01:35;;;;;;;0.80;0.80;;;;;;;;;;5032920;28;20190;-79
2022/12/15 03:04:05;;;;;;;0.70;0.70;;;;;;;;;;5048492;28;20710;-77
2022/12/15 03:06:35;;;;;;;1.35;1.35;;;;;;;;;;5036530;28;20561;-78
2022/12/15 03:09:07;;;;;;;0.93;0.93;;;;;;;;;;5052600;28;20214;-78
2022/12/15 03:11:39;;;;;;;0.98;0.98;;;;;;;;;;5051814;28;20251;-78
2022/12/15 03:14:09;;;;;;;0.75;0.75;;;;;;;;;;5049087;28;20600;-79
2022/12/15 03:16:38;;;;;;;0.70;0.70;;;;;;;;;;5052774;28;20578;-78
2022/12/15 03:19:07;;;;;;;0.70;0.70;;;;;;;;;;5051993;28;20625;-78
2022/12/15 03:21:37;;;;;;;0.90;0.90;;;;;;;;;;5053397;28;20186;-77
2022/12/15 03:24:07;;;;;;;1.02;1.02;;;;;;;;;;5034958;28;20198;-77
2022/12/15 03:26:39;;;;;;;1.00;1.00;;;;;;;;;;5036890;28;20206;-77
2022/12/15 03:29:06;;;;;;;0.80;0.80;;;;;;;;;;5051999;28;20239;-77
2022/12/15 03:31:38;;;;;;;0.90;0.90;;;;;;;;;;5035106;28;20201;-77
2022/12/15 03:34:10;;;;;;;1.52;1.42;;;;;;;;;;5050292;28;20205;-77
2022/12/15 03:36:45;;;;;;;0.70;0.70;;;;;;;;;;5050719;28;20177;-78
2022/12/15 03:39:16;;;;;;;1.10;1.10;;;;;;;;;;5052285;28;20228;-76
2022/12/15 03:41:48;;;;;;;0.65;0.63;;;;;;;;;;5053046;28;20192;-77
2022/12/15 03:44:17;;;;;;;0.88;0.88;;;;;;;;;;5052431;28;20199;-77
2022/12/15 03:46:46;;;;;;;0.70;0.60;;;;;;;;;;5050831;28;20204;-77
2022/12/15 03:49:21;;;;;;;1.67;1.58;;;;;;;;;;5043167;28;20213;-78
2022/12/15 03:51:59;;;;;;;1.67;1.58;;;;;;;;;;5042077;28;20281;-77
2022/12/15 03:54:27;;;;;;;0.80;0.80;;;;;;;;;;5050504;28;20285;-77
2022/12/15 03:56:54;;;;;;;0.70;0.70;;;;;;;;;;5051913;28;20186;-79
2022/12/15 03:59:21;;;;;;;0.90;0.90;;;;;;;;;;5052261;28;20208;-78
2022/12/15 04:01:48;;;;;;;0.75;0.73;;;;;;;;;;5053727;28;20594;-78
2022/12/15 04:04:16;;;;;;;0.82;0.82;;;;;;;;;;5052665;28;20236;-77
2022/12/15 04:06:45;;;;;;;0.80;0.80;;;;;;;;;;5053529;28;20197;-78
2022/12/15 04:09:11;;;;;;;0.90;0.90;;;;;;;;;;5052662;28;20276;-78
2022/12/15 04:11:39;;;;;;;1.00;1.00;;;;;;;;;;5055135;28;20186;-77
2022/12/15 04:14:05;;;;;;;0.73;0.73;;;;;;;;;;5050377;28;20214;-76
2022/12/15 04:16:32;;;;;;;1.90;1.80;;;;;;;;;;5046744;28;20553;-78
2022/12/15 04:21:46;;;;;;;0.70;0.70;;;;;;;;;;5052234;28;20280;-78
2022/12/15 05:33:27;;;;;;;0.60;0.52;;;;;;;;;;5070236;28;20224;-78
2022/12/15 05:35:56;;;;;;;0.70;0.70;;;;;;;;;;5068153;28;20189;-78
2022/12/15 05:38:23;;;;;;;1.95;1.85;;;;;;;;;;5054029;28;20202;-78
2022/12/15 05:40:49;;;;;;;0.85;0.85;;;;;;;;;;5069037;28;20223;-77
2022/12/15 05:43:17;;;;;;;0.82;0.82;;;;;;;;;;5053969;28;20194;-77
2022/12/15 05:45:52;;;;;;;1.10;1.10;;;;;;;;;;5052475;28;20194;-77
2022/12/15 05:48:19;;;;;;;0.73;0.73;;;;;;;;;;5055341;28;20210;-76
2022/12/15 05:50:46;;;;;;;0.70;0.70;;;;;;;;;;5054086;28;20206;-76
2022/12/15 05:53:15;;;;;;;0.80;0.80;;;;;;;;;;5070867;28;20219;-78
2022/12/15 05:55:42;;;;;;;0.80;0.80;;;;;;;;;;5071205;28;20553;-76
2022/12/15 05:58:08;;;;;;;1.95;1.85;;;;;;;;;;5072298;28;20189;-77
2022/12/15 06:00:37;;;;;;;0.77;0.77;;;;;;;;;;5067189;28;20196;-77
2022/12/15 06:03:03;;;;;;;0.80;0.80;;;;;;;;;;5053998;28;20213;-76
2022/12/15 06:05:31;;;;;;;2.05;1.95;;;;;;;;;;5069353;28;20224;-77
2022/12/15 06:07:59;;;;;;;0.70;0.70;;;;;;;;;;5072952;28;20220;-77
2022/12/15 06:10:26;;;;;;;1.63;1.52;;;;;;;;;;5066813;28;20178;-77
2022/12/15 06:12:54;;;;;;;1.13;1.13;;;;;;;;;;5053184;28;20202;-76
2022/12/15 06:15:20;;;;;;;0.95;0.95;;;;;;;;;;5051574;28;20250;-77
2022/12/15 06:17:48;;;;;;;2.17;2.10;;;;;;;;;;5051124;28;20214;-76
2022/12/15 06:20:16;;;;;;;0.80;0.80;;;;;;;;;;5059649;28;20197;-78
2022/12/15 06:22:42;;;;;;;0.70;0.70;;;;;;;;;;5049686;28;20599;-77
2022/12/15 06:25:16;;;;;;;0.70;0.70;;;;;;;;;;5050419;28;20179;-77
2022/12/15 06:27:43;;;;;;;0.70;0.70;;;;;;;;;;5068094;28;20194;-77
2022/12/15 06:30:10;;;;;;;0.90;0.90;;;;;;;;;;5059076;28;20198;-77
2022/12/15 06:32:36;;;;;;;0.80;0.80;;;;;;;;;;5067132;28;20214;-77
2022/12/15 06:35:06;;;;;;;0.80;0.80;;;;;;;;;;5070836;28;20689;-76
2022/12/15 06:37:32;;;;;;;0.70;0.70;;;;;;;;;;5071468;28;20198;-77
2022/12/15 06:40:00;;;;;;;0.80;0.80;;;;;;;;;;5063526;28;20190;-77
2022/12/15 06:42:27;;;;;;;0.90;0.90;;;;;;;;;;5054270;28;20537;-76
2022/12/15 06:44:54;;;;;;;0.82;0.82;;;;;;;;;;5034166;28;20209;-76
2022/12/15 06:47:21;;;;;;;0.60;0.60;;;;;;;;;;5050458;28;20220;-77
2022/12/15 06:49:47;;;;;;;0.60;0.60;;;;;;;;;;5060911;28;20196;-77
2022/12/15 06:52:16;;;;;;;0.85;0.85;;;;;;;;;;5074526;28;20190;-77
2022/12/15 06:54:44;;;;;;;0.70;0.70;;;;;;;;;;5043394;28;20199;-76
2022/12/15 06:57:10;;;;;;;2.00;1.90;;;;;;;;;;5053665;28;20194;-76
2022/12/15 06:59:38;;;;;;;0.90;0.90;;;;;;;;;;5058998;28;20249;-78
2022/12/15 07:02:05;;;;;;;0.77;0.77;;;;;;;;;;5067277;28;20178;-77
2022/12/15 07:04:32;;;;;;;0.70;0.70;;;;;;;;;;5071220;28;20189;-77
2022/12/15 07:07:00;;;;;;;1.00;1.00;;;;;;;;;;5057772;28;20619;-78
2022/12/15 07:09:34;;;;;;;0.60;0.60;;;;;;;;;;5063085;28;20599;-77
2022/12/15 07:12:02;;;;;;;0.90;0.90;;;;;;;;;;5075851;28;20198;-77
2022/12/15 07:14:32;;;;;;;0.82;0.82;;;;;;;;;;5071540;28;20174;-79
2022/12/15 07:25:48;;;;;;;0.70;0.70;;;;;;;;;;5628338;23;20218;-79
2022/12/15 07:28:16;;;;;;;0.65;0.65;;;;;;;;;;4923089;29;20218;-78
2022/12/15 07:30:51;;;;;;;0.80;0.80;;;;;;;;;;4919747;29;20194;-76
2022/12/15 07:33:18;;;;;;;0.70;0.70;;;;;;;;;;4922512;29;20233;-77
2022/12/15 07:35:51;;;;;;;0.60;0.60;;;;;;;;;;4923566;29;20270;-76
2022/12/15 07:38:23;;;;;;;0.65;0.60;;;;;;;;;;4913260;29;20197;-78
2022/12/15 07:40:52;;;;;;;0.70;0.70;;;;;;;;;;4909429;29;20193;-78
2022/12/15 07:43:20;;;;;;;0.60;0.60;;;;;;;;;;4899883;29;20233;-77
2022/12/15 07:45:50;;;;;;;0.60;0.60;;;;;;;;;;4895158;29;20210;-79
2022/12/15 07:48:17;;;;;;;0.70;0.70;;;;;;;;;;4916030;29;20227;-78
2022/12/15 07:50:45;;;;;;;0.70;0.70;;;;;;;;;;4916806;29;20266;-78
2022/12/15 07:53:16;;;;;;;0.80;0.80;;;;;;;;;;4911667;29;20250;-78
2022/12/15 07:55:43;;;;;;;0.75;0.75;;;;;;;;;;4916646;29;20263;-77
2022/12/15 07:58:31;;;;;;;0.60;0.60;;;;;;;;;;4917189;29;20262;-78
2022/12/15 08:01:01;;;;;;;0.80;0.80;;;;;;;;;;4918767;29;20218;-78
2022/12/15 08:03:28;;;;;;;0.95;0.95;;;;;;;;;;4913466;29;20342;-77
2022/12/15 08:05:56;;;;;;;0.60;0.60;;;;;;;;;;4912074;29;20597;-78
2022/12/15 08:08:29;;;;;;;0.63;0.63;;;;;;;;;;4905612;29;20302;-80
2022/12/15 08:10:57;;;;;;;0.70;0.70;;;;;;;;;;4908321;29;20230;-77
2022/12/15 08:13:26;;;;;;;0.80;0.80;;;;;;;;;;4915400;29;20187;-81
2022/12/15 08:16:14;;;;;;;0.73;0.73;;;;;;;;;;4915111;29;20199;-79
2022/12/15 08:18:41;;;;;;;0.80;0.80;;;;;;;;;;4925025;29;20239;-80
2022/12/15 08:21:08;;;;;;;1.88;1.77;;;;;;;;;;4901948;29;20198;-79
2022/12/15 08:23:36;;;;;;;2.47;1.58;;;;;;;;;;4907271;29;20199;-78
2022/12/15 08:26:06;;;;;;;1.42;1.33;;;;;;;;;;4920306;29;20767;-78
2022/12/15 08:28:34;;;;;;;0.65;0.65;;;;;;;;;;4913295;29;20215;-77
2022/12/15 08:31:03;;;;;;;3.05;2.85;;;;;;;;;;4918837;29;20207;-78
2022/12/15 08:33:33;;;;;;;0.80;0.80;;;;;;;;;;4914733;29;20596;-79
2022/12/15 08:36:01;;;;;;;0.82;0.82;;;;;;;;;;4919706;29;20187;-77
2022/12/15 08:38:28;;;;;;;0.70;0.70;;;;;;;;;;4920139;29;20264;-76
2022/12/15 08:40:56;;;;;;;0.75;0.75;;;;;;;;;;4907242;29;20191;-78
2022/12/15 08:43:23;;;;;;;0.60;0.60;;;;;;;;;;4919558;29;20286;-78
2022/12/15 08:45:52;;;;;;;0.60;0.60;;;;;;;;;;4929447;29;20213;-77
2022/12/15 08:48:19;;;;;;;0.70;0.70;;;;;;;;;;4917695;29;20221;-77
2022/12/15 08:50:49;;;;;;;1.05;1.05;;;;;;;;;;4914734;29;20218;-79
2022/12/15 08:53:16;;;;;;;0.70;0.70;;;;;;;;;;4913245;29;20297;-79
2022/12/15 08:56:05;;;;;;;0.70;0.70;;;;;;;;;;4913348;29;20267;-78
2022/12/15 08:58:32;;;;;;;0.70;0.60;;;;;;;;;;4908905;29;20187;-78
2022/12/15 09:01:00;;;;;;;0.68;0.60;;;;;;;;;;4906530;29;20203;-78
2022/12/15 09:03:28;;;;;;;0.70;0.70;;;;;;;;;;4890904;29;20432;-76
2022/12/15 09:06:00;;;;;;;1.88;1.30;;;;;;;;;;4903122;29;20563;-78
2022/12/15 09:08:29;;;;;;;0.70;0.70;;;;;;;;;;4907317;29;20706;-79
2022/12/15 09:10:57;;;;;;;1.35;1.25;;;;;;;;;;4908616;29;20213;-79
2022/12/15 09:13:24;;;;;;;1.02;1.02;;;;;;;;;;4908790;29;20214;-79
2022/12/15 09:15:54;;;;;;;0.60;0.60;;;;;;;;;;4925158;29;20262;-79
2022/12/15 09:18:37;;;;;;;0.70;0.60;;;;;;;;;;4905489;29;20207;-78
2022/12/15 09:21:06;;;;;;;0.70;0.70;;;;;;;;;;4907880;29;20207;-78
2022/12/15 09:23:34;;;;;;;0.60;0.60;;;;;;;;;;4907780;29;20203;-78
2022/12/15 09:26:03;;;;;;;1.17;1.08;;;;;;;;;;4891180;29;20262;-78
2022/12/15 09:28:31;;;;;;;0.70;0.70;;;;;;;;;;4907354;29;20587;-77
2022/12/15 09:31:00;;;;;;;0.70;0.70;;;;;;;;;;4896669;29;20214;-78
2022/12/15 09:33:27;;;;;;;0.70;0.70;;;;;;;;;;4908322;29;20207;-78
2022/12/15 09:35:54;;;;;;;0.85;0.85;;;;;;;;;;4891015;29;20214;-77
2022/12/15 09:38:23;;;;;;;0.60;0.57;;;;;;;;;;4907774;29;20190;-78
2022/12/15 09:40:51;;;;;;;0.70;0.70;;;;;;;;;;4910137;29;20175;-79
2022/12/15 09:43:20;;;;;;;1.52;1.42;;;;;;;;;;4907184;29;20226;-78
2022/12/15 09:46:04;;;;;;;0.80;0.80;;;;;;;;;;4903584;29;21571;-78
2022/12/15 09:48:34;;;;;;;0.70;0.70;;;;;;;;;;4907376;29;20219;-79
2022/12/15 09:51:03;;;;;;;0.65;0.65;;;;;;;;;;4907770;29;20202;-76
2022/12/15 09:53:33;;;;;;;1.50;1.40;;;;;;;;;;4904450;29;20297;-78
2022/12/15 09:56:24;;;;;;;0.70;0.68;;;;;;;;;;4896490;29;20209;-78
2022/12/15 09:58:55;;;;;;;1.10;1.10;;;;;;;;;;4907862;29;20206;-77
2022/12/15 10:01:25;;;;;;;1.60;1.50;;;;;;;;;;4906797;29;20207;-80
2022/12/15 10:03:54;;;;;;;1.58;1.48;;;;;;;;;;4900694;29;20356;-77
2022/12/15 10:06:24;;;;;;;0.70;0.70;;;;;;;;;;4904265;29;20283;-81
2022/12/15 10:09:01;;;;;;;1.40;1.30;;;;;;;;;;4903611;29;20198;-81
2022/12/15 10:11:37;;;;;;;0.60;0.60;;;;;;;;;;4916795;29;20206;-78
2022/12/15 10:14:10;;;;;;;0.63;0.60;;;;;;;;;;4912864;29;20206;-80
2022/12/15 10:16:42;;;;;;;0.90;0.90;;;;;;;;;;4907665;29;20246;-78
2022/12/15 10:19:12;;;;;;;0.65;0.65;;;;;;;;;;4906645;29;20214;-78
2022/12/15 10:21:39;;;;;;;0.70;0.70;;;;;;;;;;4907351;29;20281;-79
2022/12/15 10:24:18;;;;;;;1.10;1.08;;;;;;;;;;4905437;29;20259;-79
2022/12/15 10:27:12;;;;;;;1.95;1.55;;;;;;;;;;4906188;29;20199;-79
2022/12/15 10:29:42;;;;;;;0.60;0.60;;;;;;;;;;4890830;29;20221;-79
2022/12/15 10:32:15;;;;;;;1.40;1.30;;;;;;;;;;4907989;29;20269;-79
2022/12/15 10:34:42;;;;;;;2.45;2.35;;;;;;;;;;4913469;29;20195;-76
2022/12/15 10:37:13;;;;;;;0.60;0.60;;;;;;;;;;4905806;29;20191;-79
2022/12/15 10:39:41;;;;;;;0.80;0.80;;;;;;;;;;4903374;29;20211;-78
2022/12/15 10:42:20;;;;;;;1.10;1.10;;;;;;;;;;4908951;29;20210;-78
2022/12/15 10:44:48;;;;;;;0.70;0.70;;;;;;;;;;4903301;29;20194;-79
2022/12/15 10:47:17;;;;;;;0.70;0.70;;;;;;;;;;4893386;29;20219;-78
2022/12/15 10:49:47;;;;;;;0.80;0.80;;;;;;;;;;4911719;29;20191;-79
2022/12/15 10:52:31;;;;;;;0.60;0.60;;;;;;;;;;4909432;29;20614;-79
2022/12/15 10:54:59;;;;;;;0.60;0.57;;;;;;;;;;4883947;29;20303;-78
2022/12/15 10:57:29;;;;;;;0.60;0.60;;;;;;;;;;4901534;29;20553;-79
2022/12/15 11:00:05;;;;;;;0.90;0.90;;;;;;;;;;4906871;29;20229;-79
2022/12/15 11:02:35;;;;;;;0.73;0.73;;;;;;;;;;4906346;29;20226;-76
2022/12/15 11:05:04;;;;;;;0.80;0.80;;;;;;;;;;4901111;29;20214;-79
2022/12/15 11:07:35;;;;;;;0.60;0.60;;;;;;;;;;4891396;29;20195;-77
2022/12/15 11:10:15;;;;;;;0.95;0.95;;;;;;;;;;4901089;29;20204;-78
2022/12/15 11:12:52;;;;;;;0.70;0.70;;;;;;;;;;4901375;29;20535;-78
2022/12/15 11:15:41;;;;;;;0.60;0.60;;;;;;;;;;4883564;29;20226;-78
2022/12/15 11:18:21;;;;;;;1.88;1.40;;;;;;;;;;4892422;29;20274;-78
2022/12/15 11:20:51;;;;;;;0.70;0.70;;;;;;;;;;4889898;29;20259;-78
2022/12/15 11:23:23;;;;;;;0.70;0.65;;;;;;;;;;4891198;29;20211;-77
2022/12/15 11:25:54;;;;;;;0.73;0.73;;;;;;;;;;4899295;29;20207;-77
2022/12/15 11:28:27;;;;;;;0.68;0.60;;;;;;;;;;4906028;29;20274;-77
2022/12/15 11:30:56;;;;;;;0.60;0.60;;;;;;;;;;4897686;29;20209;-77
2022/12/15 11:33:25;;;;;;;0.60;0.60;;;;;;;;;;4911748;29;20226;-77
2022/12/15 11:35:59;;;;;;;0.93;0.93;;;;;;;;;;4896670;29;20217;-77
2022/12/15 11:38:31;;;;;;;0.93;0.93;;;;;;;;;;4897064;29;20223;-77
2022/12/15 11:41:02;;;;;;;0.60;0.60;;;;;;;;;;4893719;29;20391;-77
2022/12/15 11:43:38;;;;;;;0.60;0.60;;;;;;;;;;4897868;29;20203;-77
2022/12/15 11:46:16;;;;;;;0.70;0.70;;;;;;;;;;4898919;29;20186;-77
2022/12/15 11:48:52;;;;;;;0.70;0.70;;;;;;;;;;4896474;29;20278;-78
2022/12/15 11:51:23;;;;;;;0.80;0.80;;;;;;;;;;4903685;29;20226;-77
2022/12/15 11:53:59;;;;;;;1.02;1.02;;;;;;;;;;4905102;29;20250;-78
2022/12/15 11:56:30;;;;;;;0.70;0.70;;;;;;;;;;4906757;29;20233;-78
2022/12/15 11:59:14;;;;;;;0.70;0.70;;;;;;;;;;4907742;29;20179;-77
2022/12/15 12:01:52;;;;;;;0.60;0.60;;;;;;;;;;4906183;29;20214;-78
2022/12/15 12:04:29;;;;;;;0.68;0.60;;;;;;;;;;4906220;29;20293;-79
2022/12/15 12:07:06;;;;;;;0.60;0.60;;;;;;;;;;4903014;29;20266;-79
2022/12/15 12:09:34;;;;;;;0.70;0.70;;;;;;;;;;4903320;29;20202;-79
2022/12/15 12:12:11;;;;;;;0.93;0.93;;;;;;;;;;4901922;29;20221;-79
2022/12/15 12:14:45;;;;;;;0.60;0.60;;;;;;;;;;4901014;29;20226;-78
2022/12/15 12:17:20;;;;;;;0.60;0.60;;;;;;;;;;4899973;29;20284;-80
2022/12/15 12:19:51;;;;;;;1.80;1.58;;;;;;;;;;4900274;29;20291;-81
2022/12/15 12:22:22;;;;;;;0.65;0.65;;;;;;;;;;4887517;29;20195;-81
2022/12/15 12:24:51;;;;;;;0.63;0.63;;;;;;;;;;4901450;29;20290;-79
2022/12/15 12:27:25;;;;;;;0.60;0.60;;;;;;;;;;4901995;29;20210;-79
2022/12/15 12:29:53;;;;;;;0.70;0.70;;;;;;;;;;4904957;29;20233;-79
2022/12/15 12:32:27;;;;;;;0.95;0.95;;;;;;;;;;4922239;29;20215;-79
2022/12/15 12:35:01;;;;;;;0.80;0.80;;;;;;;;;;4899481;29;20194;-79
2022/12/15 12:37:50;;;;;;;0.80;0.80;;;;;;;;;;4895811;29;20290;-80
2022/12/15 12:40:18;;;;;;;0.70;0.70;;;;;;;;;;4888657;29;20207;-80
2022/12/15 12:42:50;;;;;;;0.75;0.75;;;;;;;;;;4901371;29;20257;-81
2022/12/15 12:45:22;;;;;;;0.63;0.60;;;;;;;;;;4901871;29;20194;-81
2022/12/15 12:47:50;;;;;;;1.27;1.25;;;;;;;;;;4900141;29;20214;-78
2022/12/15 12:50:22;;;;;;;0.70;0.60;;;;;;;;;;4899702;29;20211;-80
2022/12/15 12:52:50;;;;;;;0.70;0.68;;;;;;;;;;4899443;29;20188;-79
2022/12/15 12:55:26;;;;;;;0.70;0.70;;;;;;;;;;4899293;29;20214;-79
2022/12/15 12:57:55;;;;;;;0.85;0.85;;;;;;;;;;4900015;29;20195;-81
2022/12/15 13:00:23;;;;;;;1.38;1.27;;;;;;;;;;4899348;29;20202;-82
2022/12/15 13:02:55;;;;;;;1.50;1.40;;;;;;;;;;4897999;29;20219;-79
2022/12/15 13:05:32;;;;;;;0.60;0.60;;;;;;;;;;4899218;29;20270;-80
2022/12/15 13:08:16;;;;;;;0.70;0.70;;;;;;;;;;4899367;29;20274;-79
2022/12/15 13:10:45;;;;;;;0.70;0.70;;;;;;;;;;4899234;29;20286;-80
2022/12/15 13:13:35;;;;;;;0.68;0.68;;;;;;;;;;4908626;29;20609;-80
2022/12/15 13:16:07;;;;;;;0.70;0.70;;;;;;;;;;4915863;29;20205;-80
2022/12/15 13:18:48;;;;;;;0.70;0.70;;;;;;;;;;4898851;29;20636;-81
2022/12/15 13:21:47;;;;;;;0.70;0.70;;;;;;;;;;4900209;29;20655;-80
2022/12/15 13:24:18;;;;;;;0.80;0.80;;;;;;;;;;4892456;29;20699;-81
2022/12/15 13:26:46;;;;;;;0.73;0.73;;;;;;;;;;4899612;29;20686;-81
2022/12/15 13:29:17;;;;;;;0.70;0.60;;;;;;;;;;4900306;29;20574;-82
2022/12/15 13:31:47;;;;;;;0.90;0.90;;;;;;;;;;4894422;29;20192;-81
2022/12/15 13:34:17;;;;;;;0.80;0.80;;;;;;;;;;4887580;29;20222;-79
2022/12/15 13:36:45;;;;;;;0.70;0.65;;;;;;;;;;4894336;29;20259;-80
2022/12/15 13:39:53;;;;;;;0.70;0.60;;;;;;;;;;4900670;29;20546;-80
2022/12/15 13:42:30;;;;;;;0.60;0.60;;;;;;;;;;4900526;29;20630;-78
2022/12/15 13:45:14;;;;;;;0.80;0.80;;;;;;;;;;4899301;29;20202;-79
2022/12/15 13:47:49;;;;;;;0.70;0.70;;;;;;;;;;4898494;29;20219;-78
2022/12/15 13:50:25;;;;;;;0.60;0.60;;;;;;;;;;4894963;29;20211;-79
2022/12/15 13:52:53;;;;;;;0.70;0.70;;;;;;;;;;4898138;29;20212;-79
2022/12/15 13:55:50;;;;;;;2.42;2.25;;;;;;;;;;4901438;29;20217;-79
2022/12/15 13:58:19;;;;;;;0.90;0.90;;;;;;;;;;4899817;29;20524;-78
2022/12/15 14:00:49;;;;;;;0.70;0.70;;;;;;;;;;4898292;29;20230;-80
2022/12/15 14:03:16;;;;;;;5.20;3.20;;;;;;;;;;4897160;29;20353;-79
2022/12/15 14:05:48;;;;;;;0.70;0.60;;;;;;;;;;4898403;29;20218;-79
2022/12/15 14:08:19;;;;;;;0.65;0.60;;;;;;;;;;4897887;29;20574;-78
2022/12/15 14:10:50;;;;;;;0.80;0.80;;;;;;;;;;4899955;29;20225;-79
2022/12/15 14:13:21;;;;;;;0.60;0.60;;;;;;;;;;4894493;29;20207;-78
2022/12/15 14:15:51;;;;;;;0.60;0.60;;;;;;;;;;4895016;29;20252;-78
2022/12/15 14:18:22;;;;;;;0.68;0.60;;;;;;;;;;4898169;29;20242;-76
2022/12/15 14:20:49;;;;;;;0.60;0.60;;;;;;;;;;4898684;29;20586;-77
2022/12/15 14:23:17;;;;;;;0.70;0.70;;;;;;;;;;4897487;29;20191;-78
2022/12/15 14:25:51;;;;;;;0.70;0.70;;;;;;;;;;4897925;29;20202;-77
2022/12/15 14:28:29;;;;;;;0.70;0.70;;;;;;;;;;4897766;29;20651;-77
2022/12/15 14:31:04;;;;;;;0.70;0.70;;;;;;;;;;4898643;29;20581;-77
2022/12/15 14:33:33;;;;;;;0.70;0.70;;;;;;;;;;4893371;29;20715;-77
2022/12/15 14:36:04;;;;;;;0.90;0.90;;;;;;;;;;4895113;29;20199;-78
2022/12/15 14:38:37;;;;;;;0.70;0.60;;;;;;;;;;4897389;29;20302;-77
2022/12/15 14:41:04;;;;;;;0.70;0.70;;;;;;;;;;4897833;29;20254;-78
2022/12/15 14:43:32;;;;;;;0.70;0.70;;;;;;;;;;4898705;29;20207;-77
2022/12/15 14:46:15;;;;;;;0.80;0.80;;;;;;;;;;4896233;29;20341;-79
2022/12/15 14:48:49;;;;;;;2.25;2.15;;;;;;;;;;4882837;29;20223;-78
2022/12/15 14:51:16;;;;;;;1.80;1.70;;;;;;;;;;4895575;29;20258;-77
2022/12/15 14:53:46;;;;;;;0.70;0.70;;;;;;;;;;4913008;29;20200;-77
2022/12/15 14:56:21;;;;;;;0.80;0.80;;;;;;;;;;4909353;29;20640;-76
2022/12/15 14:58:58;;;;;;;0.70;0.70;;;;;;;;;;4888043;29;20660;-76
2022/12/15 15:01:28;;;;;;;0.70;0.70;;;;;;;;;;4878574;29;20203;-77
2022/12/15 15:04:02;;;;;;;0.70;0.70;;;;;;;;;;4879303;29;20298;-78
2022/12/15 15:06:35;;;;;;;0.70;0.70;;;;;;;;;;4883107;29;20187;-76
2022/12/15 15:09:17;;;;;;;0.90;0.90;;;;;;;;;;4897856;29;20581;-76
2022/12/15 15:11:46;;;;;;;0.60;0.60;;;;;;;;;;4896166;29;20824;-77
2022/12/15 15:14:15;;;;;;;0.77;0.77;;;;;;;;;;4895809;29;20668;-76
2022/12/15 15:16:43;;;;;;;0.80;0.80;;;;;;;;;;4897255;29;20636;-77
2022/12/15 15:19:18;;;;;;;0.70;0.70;;;;;;;;;;4911916;29;20222;-77
2022/12/15 15:21:46;;;;;;;0.70;0.70;;;;;;;;;;4896971;29;20610;-77
2022/12/15 15:24:21;;;;;;;0.90;0.90;;;;;;;;;;4879882;29;20308;-78
2022/12/15 15:26:48;;;;;;;0.70;0.70;;;;;;;;;;4896374;29;20674;-76
2022/12/15 15:29:37;;;;;;;0.70;0.70;;;;;;;;;;4896047;29;20677;-77
2022/12/15 15:32:06;;;;;;;0.75;0.75;;;;;;;;;;4888313;29;20206;-76
2022/12/15 15:34:42;;;;;;;0.70;0.70;;;;;;;;;;4893248;29;20189;-78
2022/12/15 15:37:14;;;;;;;0.70;0.70;;;;;;;;;;4878585;29;20250;-79
2022/12/15 15:39:44;;;;;;;0.80;0.80;;;;;;;;;;4880227;29;20179;-77
2022/12/15 15:42:14;;;;;;;0.68;0.63;;;;;;;;;;4907965;29;20187;-76
2022/12/15 15:44:41;;;;;;;0.70;0.70;;;;;;;;;;4896828;29;20194;-78
2022/12/15 15:47:15;;;;;;;0.80;0.80;;;;;;;;;;4892753;29;20265;-78
2022/12/15 15:49:44;;;;;;;0.60;0.60;;;;;;;;;;4916313;29;20216;-79
2022/12/15 15:52:12;;;;;;;0.70;0.70;;;;;;;;;;4896943;29;20193;-78
2022/12/15 15:54:38;;;;;;;0.63;0.63;;;;;;;;;;4897163;29;20943;-80
2022/12/15 15:57:08;;;;;;;0.63;0.63;;;;;;;;;;4912102;29;20617;-77
2022/12/15 15:59:37;;;;;;;0.80;0.80;;;;;;;;;;4898441;29;20181;-78
2022/12/15 16:02:04;;;;;;;0.70;0.70;;;;;;;;;;4897073;29;20191;-77
2022/12/15 16:04:32;;;;;;;0.70;0.70;;;;;;;;;;4895964;29;20364;-77
2022/12/15 16:07:03;;;;;;;0.70;0.70;;;;;;;;;;4898203;29;20659;-79
2022/12/15 16:09:29;;;;;;;0.60;0.60;;;;;;;;;;4881211;29;20238;-78
2022/12/15 16:11:57;;;;;;;0.70;0.70;;;;;;;;;;4897330;29;20199;-79
2022/12/15 16:14:25;;;;;;;0.60;0.60;;;;;;;;;;4896350;29;20213;-78
2022/12/15 16:16:53;;;;;;;0.60;0.60;;;;;;;;;;4892271;29;20226;-77
2022/12/15 16:19:20;;;;;;;0.70;0.70;;;;;;;;;;4895534;29;20215;-77
2022/12/15 16:21:49;;;;;;;0.60;0.60;;;;;;;;;;4896737;29;20294;-79
2022/12/15 16:24:18;;;;;;;0.70;0.70;;;;;;;;;;4895973;29;20199;-79
2022/12/15 16:26:46;;;;;;;0.70;0.70;;;;;;;;;;4897326;29;20195;-77
2022/12/15 16:29:14;;;;;;;1.08;1.08;;;;;;;;;;4896623;29;20210;-77
2022/12/15 16:31:45;;;;;;;0.80;0.80;;;;;;;;;;4895708;29;20299;-78
2022/12/15 16:34:15;;;;;;;0.82;0.82;;;;;;;;;;4895914;29;20274;-78
2022/12/15 16:36:59;;;;;;;0.80;0.80;;;;;;;;;;4879208;29;20198;-77
2022/12/15 16:39:31;;;;;;;0.70;0.70;;;;;;;;;;4880947;29;20270;-78
2022/12/15 16:41:58;;;;;;;0.70;0.70;;;;;;;;;;4896333;29;20199;-78
2022/12/15 16:44:27;;;;;;;1.00;1.00;;;;;;;;;;4879869;29;20195;-79
2022/12/15 16:46:55;;;;;;;1.20;1.20;;;;;;;;;;4901103;29;20243;-76
2022/12/15 16:49:22;;;;;;;0.80;0.80;;;;;;;;;;4898301;29;20179;-76
2022/12/15 16:51:50;;;;;;;1.33;1.23;;;;;;;;;;4899165;29;20349;-76
2022/12/15 16:54:19;;;;;;;0.80;0.80;;;;;;;;;;4901043;29;20179;-77
2022/12/15 16:56:48;;;;;;;0.95;0.95;;;;;;;;;;4896516;29;20593;-78
2022/12/15 16:59:16;;;;;;;0.70;0.70;;;;;;;;;;4895188;29;20720;-77
2022/12/15 17:02:13;;;;;;;0.73;0.73;;;;;;;;;;4899554;29;20651;-76
2022/12/15 17:04:41;;;;;;;0.73;0.73;;;;;;;;;;4909611;29;20198;-76
2022/12/15 17:07:10;;;;;;;1.00;1.00;;;;;;;;;;4899352;29;20268;-79
2022/12/15 17:09:45;;;;;;;0.70;0.70;;;;;;;;;;4884341;29;20218;-78
2022/12/15 17:12:13;;;;;;;0.90;0.90;;;;;;;;;;4899805;29;20201;-79
2022/12/15 17:14:42;;;;;;;1.60;1.50;;;;;;;;;;4898124;29;20191;-79
2022/12/15 17:17:11;;;;;;;0.70;0.70;;;;;;;;;;4898105;29;20206;-77
2022/12/15 17:19:38;;;;;;;0.70;0.70;;;;;;;;;;4898042;29;20182;-76
2022/12/15 17:22:25;;;;;;;0.60;0.60;;;;;;;;;;4899273;29;20213;-77
2022/12/15 17:24:53;;;;;;;1.80;1.70;;;;;;;;;;4898948;29;20254;-79
2022/12/15 17:27:26;;;;;;;0.70;0.70;;;;;;;;;;4899421;29;20238;-78
2022/12/15 17:29:54;;;;;;;1.77;1.60;;;;;;;;;;4902478;29;20210;-78
2022/12/15 17:32:22;;;;;;;0.77;0.77;;;;;;;;;;4921146;29;20227;-79
2022/12/15 17:35:11;;;;;;;0.70;0.70;;;;;;;;;;4896162;29;20295;-78
2022/12/15 17:37:39;;;;;;;1.90;1.80;;;;;;;;;;4901142;29;20183;-80
2022/12/15 17:40:28;;;;;;;1.00;1.00;;;;;;;;;;4900667;29;20179;-78